sensor_id;sensor_type;location;lat;lon;timestamp;pressure;altitude;pressure_sealevel;temperature;humidity
17785;BME280;9016;53.582;10.062;2023-02-23T00:01:52;101123.84;;;10.76;90.47
17785;BME280;9016;53.582;10.062;2023-02-23T00:04:22;101123.31;;;10.70;91.13
17785;BME280;9016;53.582;10.062;2023-02-23T00:06:51;101118.25;;;10.81;91.52
17785;BME280;9016;53.582;10.062;2023-02-23T00:09:20;101116.31;;;10.52;92.48
17785;BME280;9016;53.582;10.062;2023-02-23T00:11:51;101119.94;;;10.51;92.26
17785;BME280;9016;53.582;10.062;2023-02-23T00:14:19;101115.94;;;10.42;92.57
17785;BME280;9016;53.582;10.062;2023-02-23T00:16:48;101112.88;;;10.50;92.75
17785;BME280;9016;53.582;10.062;2023-02-23T00:19:17;101117.69;;;10.43;92.98
17785;BME280;9016;53.582;10.062;2023-02-23T00:21:46;101113.81;;;10.49;93.03
17785;BME280;9016;53.582;10.062;2023-02-23T00:24:16;101113.75;;;10.50;92.63
17785;BME280;9016;53.582;10.062;2023-02-23T00:26:46;101115.94;;;10.42;92.33
17785;BME280;9016;53.582;10.062;2023-02-23T00:29:18;101110.91;;;10.53;92.55
17785;BME280;9016;53.582;10.062;2023-02-23T00:31:48;101107.91;;;10.44;93.02
17785;BME280;9016;53.582;10.062;2023-02-23T00:34:18;101108.81;;;10.43;92.51
17785;BME280;9016;53.582;10.062;2023-02-23T00:36:50;101106.66;;;10.34;93.18
17785;BME280;9016;53.582;10.062;2023-02-23T00:39:20;101105.22;;;10.44;93.50
17785;BME280;9016;53.582;10.062;2023-02-23T00:41:51;101107.25;;;10.39;92.81
17785;BME280;9016;53.582;10.062;2023-02-23T00:44:22;101106.00;;;10.46;92.93
17785;BME280;9016;53.582;10.062;2023-02-23T00:46:50;101105.56;;;10.38;92.89
17785;BME280;9016;53.582;10.062;2023-02-23T00:49:20;101110.72;;;10.24;93.26
17785;BME280;9016;53.582;10.062;2023-02-23T00:51:49;101109.75;;;10.09;93.97
17785;BME280;9016;53.582;10.062;2023-02-23T00:54:19;101117.78;;;10.08;95.09
17785;BME280;9016;53.582;10.062;2023-02-23T00:56:48;101110.75;;;10.07;95.42
17785;BME280;9016;53.582;10.062;2023-02-23T00:59:17;101119.75;;;10.04;95.54
17785;BME280;9016;53.582;10.062;2023-02-23T01:01:45;101116.06;;;10.07;96.06
17785;BME280;9016;53.582;10.062;2023-02-23T01:04:14;101110.84;;;10.05;95.95
17785;BME280;9016;53.582;10.062;2023-02-23T01:06:42;101113.28;;;10.10;96.07
17785;BME280;9016;53.582;10.062;2023-02-23T01:09:15;101112.19;;;10.14;95.53
17785;BME280;9016;53.582;10.062;2023-02-23T01:11:55;101108.50;;;10.16;95.11
17785;BME280;9016;53.582;10.062;2023-02-23T01:14:23;101110.41;;;10.30;94.90
17785;BME280;9016;53.582;10.062;2023-02-23T01:16:51;101120.06;;;10.32;94.18
17785;BME280;9016;53.582;10.062;2023-02-23T01:19:19;101115.38;;;10.20;94.63
17785;BME280;9016;53.582;10.062;2023-02-23T01:21:48;101111.59;;;10.24;93.89
17785;BME280;9016;53.582;10.062;2023-02-23T01:24:17;101111.06;;;10.35;94.51
17785;BME280;9016;53.582;10.062;2023-02-23T01:26:45;101103.59;;;10.41;93.88
17785;BME280;9016;53.582;10.062;2023-02-23T01:29:14;101112.19;;;10.46;93.64
17785;BME280;9016;53.582;10.062;2023-02-23T01:31:44;101109.72;;;10.59;92.42
17785;BME280;9016;53.582;10.062;2023-02-23T01:34:13;101101.50;;;10.31;92.80
17785;BME280;9016;53.582;10.062;2023-02-23T01:36:43;101102.84;;;10.22;93.73
17785;BME280;9016;53.582;10.062;2023-02-23T01:39:13;101102.63;;;10.10;94.53
17785;BME280;9016;53.582;10.062;2023-02-23T01:41:43;101105.44;;;10.07;95.18
17785;BME280;9016;53.582;10.062;2023-02-23T01:47:16;101106.44;;;10.04;95.64
17785;BME280;9016;53.582;10.062;2023-02-23T01:49:46;101110.88;;;10.03;95.63
17785;BME280;9016;53.582;10.062;2023-02-23T01:52:16;101106.34;;;10.06;95.90
17785;BME280;9016;53.582;10.062;2023-02-23T01:54:49;101102.84;;;10.05;95.73
17785;BME280;9016;53.582;10.062;2023-02-23T01:57:21;101101.75;;;10.09;95.51
17785;BME280;9016;53.582;10.062;2023-02-23T01:59:52;101095.19;;;10.16;95.36
17785;BME280;9016;53.582;10.062;2023-02-23T02:02:23;101093.75;;;10.26;95.40
17785;BME280;9016;53.582;10.062;2023-02-23T02:04:59;101090.69;;;10.17;94.95
17785;BME280;9016;53.582;10.062;2023-02-23T02:07:28;101093.75;;;10.26;94.63
17785;BME280;9016;53.582;10.062;2023-02-23T02:09:58;101092.03;;;10.25;94.46
17785;BME280;9016;53.582;10.062;2023-02-23T02:12:47;101091.09;;;10.26;94.27
17785;BME280;9016;53.582;10.062;2023-02-23T02:15:18;101090.16;;;10.27;94.66
17785;BME280;9016;53.582;10.062;2023-02-23T02:17:54;101089.03;;;10.31;93.90
17785;BME280;9016;53.582;10.062;2023-02-23T02:20:44;101099.84;;;10.28;93.84
17785;BME280;9016;53.582;10.062;2023-02-23T02:23:41;101094.53;;;10.28;94.01
17785;BME280;9016;53.582;10.062;2023-02-23T02:26:21;101097.56;;;10.38;94.10
17785;BME280;9016;53.582;10.062;2023-02-23T02:35:24;101092.25;;;10.38;93.36
17785;BME280;9016;53.582;10.062;2023-02-23T02:38:04;101093.59;;;10.29;93.20
17785;BME280;9016;53.582;10.062;2023-02-23T02:40:42;101096.59;;;10.39;94.30
17785;BME280;9016;53.582;10.062;2023-02-23T02:43:24;101098.84;;;10.31;93.67
17785;BME280;9016;53.582;10.062;2023-02-23T02:46:01;101088.28;;;10.29;94.26
17785;BME280;9016;53.582;10.062;2023-02-23T02:48:36;101095.63;;;10.24;94.01
17785;BME280;9016;53.582;10.062;2023-02-23T02:51:13;101088.50;;;10.25;93.74
17785;BME280;9016;53.582;10.062;2023-02-23T02:53:50;101089.09;;;10.30;94.68
17785;BME280;9016;53.582;10.062;2023-02-23T02:56:22;101089.31;;;10.42;93.75
17785;BME280;9016;53.582;10.062;2023-02-23T02:58:52;101087.09;;;10.50;93.24
17785;BME280;9016;53.582;10.062;2023-02-23T03:01:21;101087.09;;;10.50;92.83
17785;BME280;9016;53.582;10.062;2023-02-23T03:04:19;101085.72;;;10.59;92.17
17785;BME280;9016;53.582;10.062;2023-02-23T03:07:11;101081.16;;;10.45;91.58
17785;BME280;9016;53.582;10.062;2023-02-23T03:10:07;101086.03;;;10.37;92.19
17785;BME280;9016;53.582;10.062;2023-02-23T03:13:03;101089.31;;;10.42;92.62
17785;BME280;9016;53.582;10.062;2023-02-23T03:15:58;101089.94;;;10.47;91.83
17785;BME280;9016;53.582;10.062;2023-02-23T03:18:57;101090.06;;;10.29;92.54
17785;BME280;9016;53.582;10.062;2023-02-23T03:21:50;101094.00;;;10.05;94.11
17785;BME280;9016;53.582;10.062;2023-02-23T03:24:41;101088.44;;;10.09;94.62
17785;BME280;9016;53.582;10.062;2023-02-23T03:27:42;101093.38;;;10.17;94.78
17785;BME280;9016;53.582;10.062;2023-02-23T03:30:35;101094.75;;;10.24;94.34
17785;BME280;9016;53.582;10.062;2023-02-23T03:33:31;101089.09;;;10.30;93.99
17785;BME280;9016;53.582;10.062;2023-02-23T03:36:23;101084.56;;;10.32;93.77
17785;BME280;9016;53.582;10.062;2023-02-23T03:39:14;101087.91;;;10.35;93.61
17785;BME280;9016;53.582;10.062;2023-02-23T03:42:06;101088.41;;;10.26;93.79
17785;BME280;9016;53.582;10.062;2023-02-23T03:44:56;101079.25;;;10.32;93.43
17785;BME280;9016;53.582;10.062;2023-02-23T03:47:43;101076.66;;;10.30;93.38
17785;BME280;9016;53.582;10.062;2023-02-23T03:50:34;101082.19;;;10.43;93.13
17785;BME280;9016;53.582;10.062;2023-02-23T03:53:25;101084.34;;;10.36;93.58
17785;BME280;9016;53.582;10.062;2023-02-23T03:56:12;101084.25;;;10.38;93.26
17785;BME280;9016;53.582;10.062;2023-02-23T03:59:00;101082.50;;;10.37;93.02
17785;BME280;9016;53.582;10.062;2023-02-23T04:01:50;101081.44;;;10.56;92.54
17785;BME280;9016;53.582;10.062;2023-02-23T04:04:39;101076.91;;;10.58;91.63
17785;BME280;9016;53.582;10.062;2023-02-23T04:07:26;101076.38;;;10.67;91.30
17785;BME280;9016;53.582;10.062;2023-02-23T04:10:12;101081.13;;;10.62;90.53
17785;BME280;9016;53.582;10.062;2023-02-23T04:13:01;101086.31;;;10.48;91.85
17785;BME280;9016;53.582;10.062;2023-02-23T04:15:46;101085.53;;;10.46;91.88
17785;BME280;9016;53.582;10.062;2023-02-23T04:18:18;101083.38;;;10.37;92.23
17785;BME280;9016;53.582;10.062;2023-02-23T04:20:47;101087.91;;;10.35;92.29
17785;BME280;9016;53.582;10.062;2023-02-23T04:23:15;101087.72;;;10.23;94.18
17785;BME280;9016;53.582;10.062;2023-02-23T04:25:43;101090.50;;;10.37;93.06
17785;BME280;9016;53.582;10.062;2023-02-23T04:28:13;101087.84;;;10.37;92.79
17785;BME280;9016;53.582;10.062;2023-02-23T04:30:41;101094.00;;;10.54;92.60
17785;BME280;9016;53.582;10.062;2023-02-23T04:33:10;101093.03;;;10.55;91.11
17785;BME280;9016;53.582;10.062;2023-02-23T04:35:39;101098.53;;;10.52;91.46
17785;BME280;9016;53.582;10.062;2023-02-23T04:38:07;101094.78;;;10.56;91.20
17785;BME280;9016;53.582;10.062;2023-02-23T04:40:36;101099.81;;;10.61;90.89
17785;BME280;9016;53.582;10.062;2023-02-23T04:43:04;101092.97;;;10.72;90.64
17785;BME280;9016;53.582;10.062;2023-02-23T04:45:32;101097.44;;;10.72;90.09
17785;BME280;9016;53.582;10.062;2023-02-23T04:48:00;101090.81;;;10.63;90.90
17785;BME280;9016;53.582;10.062;2023-02-23T04:50:28;101089.44;;;10.56;90.78
17785;BME280;9016;53.582;10.062;2023-02-23T04:52:59;101085.91;;;10.56;90.88
17785;BME280;9016;53.582;10.062;2023-02-23T04:55:27;101087.63;;;10.57;91.00
17785;BME280;9016;53.582;10.062;2023-02-23T04:57:56;101089.34;;;10.58;91.27
17785;BME280;9016;53.582;10.062;2023-02-23T05:00:26;101094.00;;;10.54;90.71
17785;BME280;9016;53.582;10.062;2023-02-23T05:02:55;101089.53;;;10.55;91.46
17785;BME280;9016;53.582;10.062;2023-02-23T05:05:23;101085.38;;;10.49;91.15
17785;BME280;9016;53.582;10.062;2023-02-23T05:07:51;101085.38;;;10.49;91.15
17785;BME280;9016;53.582;10.062;2023-02-23T05:10:21;101083.84;;;10.45;90.94
17785;BME280;9016;53.582;10.062;2023-02-23T05:12:49;101088.66;;;10.54;91.41
17785;BME280;9016;53.582;10.062;2023-02-23T05:15:17;101080.75;;;10.68;91.03
17785;BME280;9016;53.582;10.062;2023-02-23T05:17:45;101088.78;;;10.84;89.89
17785;BME280;9016;53.582;10.062;2023-02-23T05:20:13;101086.03;;;10.85;89.72
17785;BME280;9016;53.582;10.062;2023-02-23T05:22:41;101089.66;;;10.84;89.62
17785;BME280;9016;53.582;10.062;2023-02-23T05:25:09;101084.38;;;10.83;89.10
17785;BME280;9016;53.582;10.062;2023-02-23T05:27:39;101090.13;;;10.75;89.25
17785;BME280;9016;53.582;10.062;2023-02-23T05:30:08;101092.78;;;10.75;89.64
17785;BME280;9016;53.582;10.062;2023-02-23T05:32:36;101088.50;;;10.73;90.44
17785;BME280;9016;53.582;10.062;2023-02-23T05:35:05;101091.16;;;10.88;89.81
17785;BME280;9016;53.582;10.062;2023-02-23T05:37:33;101088.59;;;10.87;89.77
17785;BME280;9016;53.582;10.062;2023-02-23T05:40:01;101090.84;;;10.94;89.11
17785;BME280;9016;53.582;10.062;2023-02-23T05:42:29;101088.94;;;10.96;88.63
17785;BME280;9016;53.582;10.062;2023-02-23T05:44:59;101087.91;;;10.83;88.49
17785;BME280;9016;53.582;10.062;2023-02-23T05:47:27;101092.81;;;10.91;88.80
17785;BME280;9016;53.582;10.062;2023-02-23T05:49:55;101089.19;;;10.76;88.63
17785;BME280;9016;53.582;10.062;2023-02-23T05:52:24;101101.75;;;10.74;89.80
17785;BME280;9016;53.582;10.062;2023-02-23T05:54:52;101088.25;;;10.77;90.38
17785;BME280;9016;53.582;10.062;2023-02-23T05:57:20;101088.09;;;10.80;90.12
17785;BME280;9016;53.582;10.062;2023-02-23T05:59:47;101096.91;;;10.81;89.94
17785;BME280;9016;53.582;10.062;2023-02-23T06:02:17;101097.69;;;10.83;90.33
17785;BME280;9016;53.582;10.062;2023-02-23T06:04:45;101104.50;;;10.88;89.63
17785;BME280;9016;53.582;10.062;2023-02-23T06:07:13;101098.66;;;10.97;88.80
17785;BME280;9016;53.582;10.062;2023-02-23T06:09:41;101102.53;;;11.08;88.32
17785;BME280;9016;53.582;10.062;2023-02-23T06:12:10;101108.97;;;11.04;88.48
17785;BME280;9016;53.582;10.062;2023-02-23T06:14:38;101102.78;;;11.03;88.22
17785;BME280;9016;53.582;10.062;2023-02-23T06:17:06;101108.63;;;10.94;88.27
17785;BME280;9016;53.582;10.062;2023-02-23T06:19:35;101109.91;;;10.87;88.55
17785;BME280;9016;53.582;10.062;2023-02-23T06:22:03;101109.50;;;10.79;89.02
17785;BME280;9016;53.582;10.062;2023-02-23T06:24:31;101108.88;;;10.74;89.47
17785;BME280;9016;53.582;10.062;2023-02-23T06:27:00;101106.75;;;10.80;89.87
17785;BME280;9016;53.582;10.062;2023-02-23T06:29:27;101115.84;;;10.76;89.49
17785;BME280;9016;53.582;10.062;2023-02-23T06:31:55;101115.84;;;10.76;90.14
17785;BME280;9016;53.582;10.062;2023-02-23T06:34:26;101113.28;;;10.75;90.21
17785;BME280;9016;53.582;10.062;2023-02-23T06:36:56;101127.63;;;10.72;89.57
17785;BME280;9016;53.582;10.062;2023-02-23T06:39:24;101117.13;;;10.69;90.06
17785;BME280;9016;53.582;10.062;2023-02-23T06:41:51;101126.00;;;10.85;90.08
17785;BME280;9016;53.582;10.062;2023-02-23T06:44:19;101126.78;;;11.03;89.22
17785;BME280;9016;53.582;10.062;2023-02-23T06:46:48;101132.75;;;11.08;88.39
17785;BME280;9016;53.582;10.062;2023-02-23T06:49:16;101127.81;;;11.16;88.12
17785;BME280;9016;53.582;10.062;2023-02-23T06:51:44;101131.00;;;11.07;87.57
17785;BME280;9016;53.582;10.062;2023-02-23T06:54:14;101129.97;;;11.10;88.07
17785;BME280;9016;53.582;10.062;2023-02-23T06:56:43;101135.66;;;11.19;88.13
17785;BME280;9016;53.582;10.062;2023-02-23T06:59:10;101140.38;;;11.14;88.00
17785;BME280;9016;53.582;10.062;2023-02-23T07:01:38;101137.38;;;11.05;87.43
17785;BME280;9016;53.582;10.062;2023-02-23T07:04:07;101145.91;;;11.27;88.48
17785;BME280;9016;53.582;10.062;2023-02-23T07:06:36;101143.72;;;11.33;88.45
17785;BME280;9016;53.582;10.062;2023-02-23T07:09:04;101144.84;;;11.45;87.45
17785;BME280;9016;53.582;10.062;2023-02-23T07:11:33;101154.06;;;11.24;87.29
17785;BME280;9016;53.582;10.062;2023-02-23T07:14:01;101153.47;;;11.19;88.21
17785;BME280;9016;53.582;10.062;2023-02-23T07:16:29;101152.69;;;11.17;87.68
17785;BME280;9016;53.582;10.062;2023-02-23T07:18:57;101159.56;;;11.21;87.42
17785;BME280;9016;53.582;10.062;2023-02-23T07:21:25;101150.72;;;11.20;87.10
17785;BME280;9016;53.582;10.062;2023-02-23T07:23:53;101161.38;;;11.20;87.62
17785;BME280;9016;53.582;10.062;2023-02-23T07:26:21;101176.69;;;11.17;87.61
17785;BME280;9016;53.582;10.062;2023-02-23T07:28:50;101172.56;;;11.11;87.08
17785;BME280;9016;53.582;10.062;2023-02-23T07:31:19;101172.97;;;11.04;88.21
17785;BME280;9016;53.582;10.062;2023-02-23T07:33:48;101183.22;;;11.11;88.61
17785;BME280;9016;53.582;10.062;2023-02-23T07:36:16;101182.63;;;11.06;87.44
17785;BME280;9016;53.582;10.062;2023-02-23T07:38:44;101180.56;;;11.11;87.99
17785;BME280;9016;53.582;10.062;2023-02-23T07:41:11;101179.41;;;10.99;87.91
17785;BME280;9016;53.582;10.062;2023-02-23T07:43:40;101184.59;;;11.03;89.52
17785;BME280;9016;53.582;10.062;2023-02-23T07:46:09;101174.88;;;11.02;89.38
17785;BME280;9016;53.582;10.062;2023-02-23T07:48:37;101177.13;;;11.09;89.39
17785;BME280;9016;53.582;10.062;2023-02-23T07:51:10;101178.94;;;11.24;89.69
17785;BME280;9016;53.582;10.062;2023-02-23T07:53:39;101180.41;;;11.30;88.75
17785;BME280;9016;53.582;10.062;2023-02-23T07:56:09;101183.16;;;11.28;89.38
17785;BME280;9016;53.582;10.062;2023-02-23T07:58:37;101191.56;;;11.36;88.87
17785;BME280;9016;53.582;10.062;2023-02-23T08:01:05;101181.25;;;11.30;88.77
17785;BME280;9016;53.582;10.062;2023-02-23T08:03:35;101185.63;;;11.31;88.65
17785;BME280;9016;53.582;10.062;2023-02-23T08:06:03;101190.88;;;11.33;89.72
17785;BME280;9016;53.582;10.062;2023-02-23T08:08:31;101196.41;;;11.30;89.76
17785;BME280;9016;53.582;10.062;2023-02-23T08:11:02;101200.19;;;11.26;89.48
17785;BME280;9016;53.582;10.062;2023-02-23T08:13:31;101196.75;;;11.08;90.01
17785;BME280;9016;53.582;10.062;2023-02-23T08:15:59;101198.78;;;11.03;90.73
17785;BME280;9016;53.582;10.062;2023-02-23T08:18:27;101200.69;;;11.01;91.00
17785;BME280;9016;53.582;10.062;2023-02-23T08:21:00;101198.88;;;11.02;90.87
17785;BME280;9016;53.582;10.062;2023-02-23T08:23:29;101199.91;;;11.15;91.44
17785;BME280;9016;53.582;10.062;2023-02-23T08:25:59;101210.06;;;11.08;90.53
17785;BME280;9016;53.582;10.062;2023-02-23T08:28:28;101201.03;;;11.11;90.35
17785;BME280;9016;53.582;10.062;2023-02-23T08:30:57;101205.25;;;11.15;90.78
17785;BME280;9016;53.582;10.062;2023-02-23T08:33:27;101207.50;;;11.07;89.87
17785;BME280;9016;53.582;10.062;2023-02-23T08:35:57;101207.78;;;11.18;91.02
17785;BME280;9016;53.582;10.062;2023-02-23T08:38:33;101205.69;;;11.23;90.88
17785;BME280;9016;53.582;10.062;2023-02-23T08:41:02;101201.03;;;11.11;90.27
17785;BME280;9016;53.582;10.062;2023-02-23T08:43:31;101213.75;;;11.06;90.35
17785;BME280;9016;53.582;10.062;2023-02-23T08:45:59;101206.34;;;10.95;90.74
17785;BME280;9016;53.582;10.062;2023-02-23T08:48:27;101200.34;;;11.07;90.48
17785;BME280;9016;53.582;10.062;2023-02-23T08:50:55;101204.56;;;11.11;90.89
17785;BME280;9016;53.582;10.062;2023-02-23T08:53:24;101210.44;;;11.33;90.44
17785;BME280;9016;53.582;10.062;2023-02-23T08:55:58;101211.44;;;11.31;89.12
17785;BME280;9016;53.582;10.062;2023-02-23T08:58:27;101209.75;;;11.30;89.29
17785;BME280;9016;53.582;10.062;2023-02-23T09:00:56;101213.28;;;11.30;89.59
17785;BME280;9016;53.582;10.062;2023-02-23T09:03:25;101198.97;;;11.31;88.68
17785;BME280;9016;53.582;10.062;2023-02-23T09:05:54;101204.13;;;11.19;88.06
17785;BME280;9016;53.582;10.062;2023-02-23T09:08:23;101201.22;;;11.39;89.68
17785;BME280;9016;53.582;10.062;2023-02-23T09:10:51;101209.06;;;11.26;89.68
17785;BME280;9016;53.582;10.062;2023-02-23T09:13:20;101211.44;;;11.31;89.43
17785;BME280;9016;53.582;10.062;2023-02-23T09:15:48;101209.84;;;11.28;88.69
17785;BME280;9016;53.582;10.062;2023-02-23T09:18:16;101207.25;;;11.27;89.67
17785;BME280;9016;53.582;10.062;2023-02-23T09:20:45;101204.22;;;11.17;90.35
17785;BME280;9016;53.582;10.062;2023-02-23T09:23:13;101203.88;;;11.08;90.09
17785;BME280;9016;53.582;10.062;2023-02-23T09:25:41;101207.91;;;11.15;90.52
17785;BME280;9016;53.582;10.062;2023-02-23T09:28:11;101207.41;;;11.08;88.75
17785;BME280;9016;53.582;10.062;2023-02-23T09:30:41;101210.69;;;11.13;89.50
17785;BME280;9016;53.582;10.062;2023-02-23T09:33:10;101204.47;;;11.13;88.77
17785;BME280;9016;53.582;10.062;2023-02-23T09:35:38;101217.38;;;11.20;88.01
17785;BME280;9016;53.582;10.062;2023-02-23T09:38:07;101215.31;;;11.10;88.07
17785;BME280;9016;53.582;10.062;2023-02-23T09:40:43;101215.50;;;11.07;88.34
17785;BME280;9016;53.582;10.062;2023-02-23T09:43:15;101218.72;;;10.96;87.78
17785;BME280;9016;53.582;10.062;2023-02-23T09:45:54;101217.59;;;10.84;88.30
17785;BME280;9016;53.582;10.062;2023-02-23T09:48:25;101220.59;;;10.78;89.81
17785;BME280;9016;53.582;10.062;2023-02-23T09:50:56;101221.50;;;10.77;89.27
17785;BME280;9016;53.582;10.062;2023-02-23T09:53:34;101227.22;;;10.87;88.83
17785;BME280;9016;53.582;10.062;2023-02-23T09:56:09;101235.91;;;10.90;89.38
17785;BME280;9016;53.582;10.062;2023-02-23T09:58:38;101226.63;;;10.82;89.02
17785;BME280;9016;53.582;10.062;2023-02-23T10:01:20;101234.34;;;10.86;89.04
17785;BME280;9016;53.582;10.062;2023-02-23T10:03:56;101238.63;;;10.73;89.16
17785;BME280;9016;53.582;10.062;2023-02-23T10:06:27;101249.31;;;10.73;89.81
17785;BME280;9016;53.582;10.062;2023-02-23T10:09:03;101234.94;;;10.76;89.65
17785;BME280;9016;53.582;10.062;2023-02-23T10:11:40;101239.84;;;10.83;88.17
17785;BME280;9016;53.582;10.062;2023-02-23T10:14:22;101246.44;;;10.93;86.11
17785;BME280;9016;53.582;10.062;2023-02-23T10:17:08;101247.22;;;10.95;86.00
17785;BME280;9016;53.582;10.062;2023-02-23T10:19:43;101241.31;;;11.06;85.72
17785;BME280;9016;53.582;10.062;2023-02-23T10:22:14;101246.75;;;10.87;84.99
17785;BME280;9016;53.582;10.062;2023-02-23T10:24:47;101247.97;;;10.97;84.40
17785;BME280;9016;53.582;10.062;2023-02-23T10:27:19;101244.88;;;11.05;85.22
17785;BME280;9016;53.582;10.062;2023-02-23T10:29:49;101239.50;;;11.07;85.54
17785;BME280;9016;53.582;10.062;2023-02-23T10:32:27;101238.03;;;11.01;83.49
17785;BME280;9016;53.582;10.062;2023-02-23T10:34:58;101239.03;;;10.98;83.53
17785;BME280;9016;53.582;10.062;2023-02-23T10:37:26;101247.97;;;10.97;84.14
17785;BME280;9016;53.582;10.062;2023-02-23T10:39:55;101250.19;;;10.89;83.42
17785;BME280;9016;53.582;10.062;2023-02-23T10:42:26;101247.81;;;11.01;83.98
17785;BME280;9016;53.582;10.062;2023-02-23T10:44:56;101250.56;;;10.99;83.94
17785;BME280;9016;53.582;10.062;2023-02-23T10:47:28;101247.03;;;10.98;83.16
17785;BME280;9016;53.582;10.062;2023-02-23T10:49:57;101248.97;;;10.79;83.13
17785;BME280;9016;53.582;10.062;2023-02-23T10:52:28;101249.78;;;10.97;83.35
17785;BME280;9016;53.582;10.062;2023-02-23T10:54:59;101245.94;;;11.03;84.47
17785;BME280;9016;53.582;10.062;2023-02-23T10:57:30;101252.38;;;10.98;82.38
17785;BME280;9016;53.582;10.062;2023-02-23T11:00:21;101253.44;;;10.79;83.07
17785;BME280;9016;53.582;10.062;2023-02-23T11:02:55;101258.88;;;10.60;84.46
17785;BME280;9016;53.582;10.062;2023-02-23T11:05:30;101265.59;;;10.67;84.57
17785;BME280;9016;53.582;10.062;2023-02-23T11:08:10;101256.59;;;10.53;84.40
17785;BME280;9016;53.582;10.062;2023-02-23T11:10:39;101265.13;;;10.59;83.81
17785;BME280;9016;53.582;10.062;2023-02-23T11:13:20;101258.88;;;10.60;84.18
17785;BME280;9016;53.582;10.062;2023-02-23T11:15:48;101254.16;;;10.48;84.26
17785;BME280;9016;53.582;10.062;2023-02-23T11:18:26;101252.41;;;10.64;83.20
17785;BME280;9016;53.582;10.062;2023-02-23T11:20:55;101245.38;;;10.80;82.47
17785;BME280;9016;53.582;10.062;2023-02-23T11:23:25;101237.75;;;11.06;82.10
17785;BME280;9016;53.582;10.062;2023-02-23T11:25:58;101236.75;;;11.24;77.73
17785;BME280;9016;53.582;10.062;2023-02-23T11:28:29;101235.03;;;11.38;78.21
17785;BME280;9016;53.582;10.062;2023-02-23T11:31:02;101234.78;;;11.43;77.00
17785;BME280;9016;53.582;10.062;2023-02-23T11:33:33;101234.63;;;11.46;76.32
17785;BME280;9016;53.582;10.062;2023-02-23T11:36:15;101237.38;;;11.44;75.65
17785;BME280;9016;53.582;10.062;2023-02-23T11:38:44;101235.75;;;11.57;76.66
17785;BME280;9016;53.582;10.062;2023-02-23T11:41:18;101237.91;;;11.51;75.91
17785;BME280;9016;53.582;10.062;2023-02-23T11:43:48;101223.09;;;11.61;76.70
17785;BME280;9016;53.582;10.062;2023-02-23T11:46:18;101220.88;;;11.69;75.92
17785;BME280;9016;53.582;10.062;2023-02-23T11:48:51;101222.41;;;11.57;75.14
17785;BME280;9016;53.582;10.062;2023-02-23T11:51:25;101228.84;;;11.53;75.37
17785;BME280;9016;53.582;10.062;2023-02-23T11:53:55;101231.53;;;11.53;75.72
17785;BME280;9016;53.582;10.062;2023-02-23T11:56:25;101227.91;;;11.39;75.51
17785;BME280;9016;53.582;10.062;2023-02-23T11:58:57;101224.09;;;11.58;76.64
17785;BME280;9016;53.582;10.062;2023-02-23T12:01:38;101221.03;;;11.81;74.33
17785;BME280;9016;53.582;10.062;2023-02-23T12:04:23;101215.94;;;11.92;73.74
17785;BME280;9016;53.582;10.062;2023-02-23T12:07:17;101220.25;;;11.95;72.65
17785;BME280;9016;53.582;10.062;2023-02-23T12:09:48;101221.03;;;11.81;72.93
17785;BME280;9016;53.582;10.062;2023-02-23T12:12:23;101215.69;;;11.66;73.40
17785;BME280;9016;53.582;10.062;2023-02-23T12:14:55;101210.34;;;11.66;72.71
17785;BME280;9016;53.582;10.062;2023-02-23T12:17:33;101220.59;;;11.73;72.38
17785;BME280;9016;53.582;10.062;2023-02-23T12:20:06;101211.28;;;11.80;71.46
17785;BME280;9016;53.582;10.062;2023-02-23T12:22:42;101211.81;;;11.71;72.41
17785;BME280;9016;53.582;10.062;2023-02-23T12:25:19;101209.81;;;11.75;71.44
17785;BME280;9016;53.582;10.062;2023-02-23T12:27:53;101213.28;;;11.61;72.10
17785;BME280;9016;53.582;10.062;2023-02-23T12:30:38;101218.19;;;11.53;72.54
17785;BME280;9016;53.582;10.062;2023-02-23T12:33:12;101213.63;;;11.55;71.19
17785;BME280;9016;53.582;10.062;2023-02-23T12:35:47;101227.56;;;11.45;72.44
17785;BME280;9016;53.582;10.062;2023-02-23T12:38:25;101221.63;;;11.40;72.64
17785;BME280;9016;53.582;10.062;2023-02-23T12:41:02;101221.44;;;11.27;73.94
17785;BME280;9016;53.582;10.062;2023-02-23T12:43:37;101217.97;;;11.25;74.28
17785;BME280;9016;53.582;10.062;2023-02-23T12:46:10;101223.41;;;11.24;73.58
17785;BME280;9016;53.582;10.062;2023-02-23T12:48:49;101219.81;;;11.25;73.69
17785;BME280;9016;53.582;10.062;2023-02-23T12:51:24;101223.41;;;11.24;73.63
17785;BME280;9016;53.582;10.062;2023-02-23T12:53:54;101223.84;;;11.16;73.40
17785;BME280;9016;53.582;10.062;2023-02-23T12:56:32;101218.31;;;11.04;74.14
17785;BME280;9016;53.582;10.062;2023-02-23T12:59:13;101216.59;;;11.03;74.66
17785;BME280;9016;53.582;10.062;2023-02-23T13:01:49;101215.31;;;11.10;76.03
17785;BME280;9016;53.582;10.062;2023-02-23T13:07:19;101214.56;;;11.23;74.21
17785;BME280;9016;53.582;10.062;2023-02-23T13:09:58;101214.22;;;11.29;74.68
17785;BME280;9016;53.582;10.062;2023-02-23T13:12:35;101214.63;;;11.22;74.69
17785;BME280;9016;53.582;10.062;2023-02-23T13:15:14;101207.81;;;11.16;74.62
17785;BME280;9016;53.582;10.062;2023-02-23T13:17:50;101204.13;;;11.19;74.71
17785;BME280;9016;53.582;10.062;2023-02-23T13:20:25;101202.25;;;11.21;74.50
17785;BME280;9016;53.582;10.062;2023-02-23T13:23:03;101202.94;;;11.24;74.29
17785;BME280;9016;53.582;10.062;2023-02-23T13:25:40;101198.19;;;11.29;75.10
17785;BME280;9016;53.582;10.062;2023-02-23T13:28:17;101196.06;;;11.20;74.66
17785;BME280;9016;53.582;10.062;2023-02-23T13:30:45;101198.19;;;11.29;75.49
17785;BME280;9016;53.582;10.062;2023-02-23T13:33:22;101191.50;;;11.22;73.61